sensor_id;sensor_type;location;lat;lon;timestamp;pressure;altitude;pressure_sealevel;temperature;humidity
7532;BME280;3807;49.030;8.714;2023-04-08T00:00:40;99654.16;;;13.19;57.47
7532;BME280;3807;49.030;8.714;2023-04-08T00:03:05;99659.06;;;13.25;57.19
7532;BME280;3807;49.030;8.714;2023-04-08T00:05:30;99654.00;;;13.24;57.62
7532;BME280;3807;49.030;8.714;2023-04-08T00:07:56;99656.91;;;13.15;57.73
7532;BME280;3807;49.030;8.714;2023-04-08T00:10:21;99657.00;;;13.11;57.80
7532;BME280;3807;49.030;8.714;2023-04-08T00:12:47;99656.34;;;13.06;58.18
7532;BME280;3807;49.030;8.714;2023-04-08T00:15:12;99658.78;;;13.09;57.83
7532;BME280;3807;49.030;8.714;2023-04-08T00:17:38;99659.63;;;13.10;57.83
7532;BME280;3807;49.030;8.714;2023-04-08T00:20:04;99656.53;;;13.02;58.50
7532;BME280;3807;49.030;8.714;2023-04-08T00:22:29;99656.41;;;13.05;58.18
7532;BME280;3807;49.030;8.714;2023-04-08T00:24:56;99662.53;;;13.01;57.73
7532;BME280;3807;49.030;8.714;2023-04-08T00:27:21;99659.19;;;12.99;58.19
7532;BME280;3807;49.030;8.714;2023-04-08T00:29:49;99664.59;;;12.91;58.19
7532;BME280;3807;49.030;8.714;2023-04-08T00:32:14;99661.88;;;12.96;58.43
7532;BME280;3807;49.030;8.714;2023-04-08T00:34:40;99662.94;;;12.90;57.87
7532;BME280;3807;49.030;8.714;2023-04-08T00:37:05;99665.53;;;12.88;58.73
7532;BME280;3807;49.030;8.714;2023-04-08T00:39:30;99666.25;;;12.92;58.26
7532;BME280;3807;49.030;8.714;2023-04-08T00:41:56;99670.00;;;12.83;58.02
7532;BME280;3807;49.030;8.714;2023-04-08T00:44:21;99664.81;;;12.85;58.58
7532;BME280;3807;49.030;8.714;2023-04-08T00:46:47;99662.44;;;12.80;58.37
7532;BME280;3807;49.030;8.714;2023-04-08T00:49:12;99667.19;;;12.90;57.94
7532;BME280;3807;49.030;8.714;2023-04-08T00:51:38;99664.94;;;12.82;58.41
7532;BME280;3807;49.030;8.714;2023-04-08T00:54:04;99664.75;;;12.86;57.85
7532;BME280;3807;49.030;8.714;2023-04-08T00:56:31;99668.31;;;12.82;58.13
7532;BME280;3807;49.030;8.714;2023-04-08T00:58:58;99665.13;;;12.77;58.36
7532;BME280;3807;49.030;8.714;2023-04-08T01:04:09;99672.91;;;12.74;58.27
7532;BME280;3807;49.030;8.714;2023-04-08T01:09:11;99669.72;;;12.68;58.95
7532;BME280;3807;49.030;8.714;2023-04-08T01:11:41;99660.44;;;12.65;58.45
7532;BME280;3807;49.030;8.714;2023-04-08T01:14:08;99662.03;;;12.69;58.23
7532;BME280;3807;49.030;8.714;2023-04-08T01:16:37;99669.69;;;12.69;58.24
7532;BME280;3807;49.030;8.714;2023-04-08T01:19:07;99666.66;;;12.58;58.84
7532;BME280;3807;49.030;8.714;2023-04-08T01:21:35;99664.00;;;12.61;58.90
7532;BME280;3807;49.030;8.714;2023-04-08T01:24:17;99663.16;;;12.60;58.90
7532;BME280;3807;49.030;8.714;2023-04-08T01:26:44;99665.28;;;12.49;58.81
7532;BME280;3807;49.030;8.714;2023-04-08T01:29:10;99663.50;;;12.51;58.99
7532;BME280;3807;49.030;8.714;2023-04-08T01:31:38;99663.38;;;12.54;59.02
7532;BME280;3807;49.030;8.714;2023-04-08T01:34:05;99653.06;;;12.57;58.97
7532;BME280;3807;49.030;8.714;2023-04-08T01:36:32;99656.00;;;12.47;59.39
7532;BME280;3807;49.030;8.714;2023-04-08T01:39:01;99658.53;;;12.48;59.14
7532;BME280;3807;49.030;8.714;2023-04-08T01:41:30;99664.56;;;12.46;59.53
7532;BME280;3807;49.030;8.714;2023-04-08T01:43:57;99659.47;;;12.46;59.41
7532;BME280;3807;49.030;8.714;2023-04-08T01:46:23;99660.47;;;12.42;59.32
7532;BME280;3807;49.030;8.714;2023-04-08T01:48:48;99659.00;;;12.34;59.63
7532;BME280;3807;49.030;8.714;2023-04-08T01:51:15;99657.84;;;12.43;59.51
7532;BME280;3807;49.030;8.714;2023-04-08T01:53:41;99654.44;;;12.43;59.18
7532;BME280;3807;49.030;8.714;2023-04-08T01:56:13;99657.91;;;12.42;59.04
7532;BME280;3807;49.030;8.714;2023-04-08T01:58:42;99651.28;;;12.36;60.05
7532;BME280;3807;49.030;8.714;2023-04-08T02:01:12;99658.03;;;12.37;59.26
7532;BME280;3807;49.030;8.714;2023-04-08T02:03:41;99653.19;;;12.31;59.80
7532;BME280;3807;49.030;8.714;2023-04-08T02:06:08;99653.91;;;12.34;59.67
7532;BME280;3807;49.030;8.714;2023-04-08T02:08:34;99657.31;;;12.33;59.67
7532;BME280;3807;49.030;8.714;2023-04-08T02:11:00;99659.13;;;12.31;59.96
7532;BME280;3807;49.030;8.714;2023-04-08T02:13:27;99655.66;;;12.32;60.01
7532;BME280;3807;49.030;8.714;2023-04-08T02:15:56;99650.75;;;12.26;59.69
7532;BME280;3807;49.030;8.714;2023-04-08T02:18:26;99656.47;;;12.34;59.42
7532;BME280;3807;49.030;8.714;2023-04-08T02:21:14;99654.22;;;12.25;59.82
7532;BME280;3807;49.030;8.714;2023-04-08T02:23:41;99651.66;;;12.25;60.28
7532;BME280;3807;49.030;8.714;2023-04-08T02:26:14;99650.94;;;12.22;60.26
7532;BME280;3807;49.030;8.714;2023-04-08T02:28:41;99658.75;;;12.17;60.40
7532;BME280;3807;49.030;8.714;2023-04-08T02:31:11;99662.34;;;12.11;60.14
7532;BME280;3807;49.030;8.714;2023-04-08T02:33:38;99655.59;;;12.10;60.25
7532;BME280;3807;49.030;8.714;2023-04-08T02:36:04;99648.66;;;12.14;60.30
7532;BME280;3807;49.030;8.714;2023-04-08T02:38:30;99650.47;;;12.10;60.13
7532;BME280;3807;49.030;8.714;2023-04-08T02:40:55;99656.50;;;12.08;60.46
7532;BME280;3807;49.030;8.714;2023-04-08T02:43:21;99656.41;;;12.11;60.33
7532;BME280;3807;49.030;8.714;2023-04-08T02:45:50;99654.84;;;12.07;60.25
7532;BME280;3807;49.030;8.714;2023-04-08T02:48:16;99656.44;;;12.09;60.38
7532;BME280;3807;49.030;8.714;2023-04-08T02:50:41;99646.31;;;12.08;60.28
7532;BME280;3807;49.030;8.714;2023-04-08T02:53:08;99648.22;;;12.01;60.54
7532;BME280;3807;49.030;8.714;2023-04-08T02:55:33;99653.22;;;12.04;60.62
7532;BME280;3807;49.030;8.714;2023-04-08T02:57:58;99655.81;;;12.03;60.64
7532;BME280;3807;49.030;8.714;2023-04-08T03:00:24;99656.72;;;12.02;60.88
7532;BME280;3807;49.030;8.714;2023-04-08T03:02:49;99662.72;;;12.01;60.92
7532;BME280;3807;49.030;8.714;2023-04-08T03:05:14;99655.81;;;12.03;60.60
7532;BME280;3807;49.030;8.714;2023-04-08T03:07:41;99654.16;;;12.02;60.78
7532;BME280;3807;49.030;8.714;2023-04-08T03:10:06;99659.38;;;11.99;60.47
7532;BME280;3807;49.030;8.714;2023-04-08T03:12:32;99655.94;;;12.00;60.34
7532;BME280;3807;49.030;8.714;2023-04-08T03:14:57;99653.53;;;11.95;60.46
7532;BME280;3807;49.030;8.714;2023-04-08T03:17:23;99661.28;;;11.92;60.71
7532;BME280;3807;49.030;8.714;2023-04-08T03:19:48;99658.59;;;11.97;60.41
7532;BME280;3807;49.030;8.714;2023-04-08T03:22:13;99657.03;;;11.93;60.63
7532;BME280;3807;49.030;8.714;2023-04-08T03:24:39;99658.59;;;11.97;60.78
7532;BME280;3807;49.030;8.714;2023-04-08T03:27:05;99662.75;;;11.99;60.50
7532;BME280;3807;49.030;8.714;2023-04-08T03:29:30;99666.19;;;11.98;60.49
7532;BME280;3807;49.030;8.714;2023-04-08T03:31:56;99667.84;;;11.99;60.82
7532;BME280;3807;49.030;8.714;2023-04-08T03:34:21;99665.47;;;11.95;60.91
7532;BME280;3807;49.030;8.714;2023-04-08T03:36:47;99662.91;;;11.95;60.38
7532;BME280;3807;49.030;8.714;2023-04-08T03:39:12;99661.19;;;11.95;60.77
7532;BME280;3807;49.030;8.714;2023-04-08T03:41:37;99668.59;;;12.03;60.34
7532;BME280;3807;49.030;8.714;2023-04-08T03:44:03;99669.69;;;11.96;60.36
7532;BME280;3807;49.030;8.714;2023-04-08T03:46:28;99680.28;;;11.83;60.92
7532;BME280;3807;49.030;8.714;2023-04-08T03:48:53;99671.88;;;11.80;60.90
7532;BME280;3807;49.030;8.714;2023-04-08T03:51:19;99674.44;;;11.80;61.22
7532;BME280;3807;49.030;8.714;2023-04-08T03:53:44;99682.09;;;11.80;61.04
7532;BME280;3807;49.030;8.714;2023-04-08T03:56:09;99674.34;;;11.83;60.76
7532;BME280;3807;49.030;8.714;2023-04-08T03:58:35;99676.06;;;11.82;60.85
7532;BME280;3807;49.030;8.714;2023-04-08T04:01:00;99678.81;;;11.76;60.91
7532;BME280;3807;49.030;8.714;2023-04-08T04:03:25;99674.72;;;11.71;61.03
7532;BME280;3807;49.030;8.714;2023-04-08T04:05:51;99670.31;;;11.76;61.33
7532;BME280;3807;49.030;8.714;2023-04-08T04:08:16;99675.44;;;11.76;61.00
7532;BME280;3807;49.030;8.714;2023-04-08T04:10:42;99671.56;;;11.90;60.53
7532;BME280;3807;49.030;8.714;2023-04-08T04:13:07;99674.63;;;11.74;60.88
7532;BME280;3807;49.030;8.714;2023-04-08T04:15:32;99676.50;;;11.68;61.10
7532;BME280;3807;49.030;8.714;2023-04-08T04:17:58;99682.28;;;11.74;61.37
7532;BME280;3807;49.030;8.714;2023-04-08T04:20:23;99671.16;;;11.76;60.65
7532;BME280;3807;49.030;8.714;2023-04-08T04:22:50;99681.56;;;11.70;61.29
7532;BME280;3807;49.030;8.714;2023-04-08T04:25:15;99678.81;;;11.76;61.11
7532;BME280;3807;49.030;8.714;2023-04-08T04:27:40;99677.97;;;11.76;61.18
7532;BME280;3807;49.030;8.714;2023-04-08T04:30:06;99675.56;;;11.71;61.14
7532;BME280;3807;49.030;8.714;2023-04-08T04:32:33;99684.34;;;11.62;61.22
7532;BME280;3807;49.030;8.714;2023-04-08T04:34:58;99682.00;;;11.56;61.73
7532;BME280;3807;49.030;8.714;2023-04-08T04:37:24;99684.19;;;11.67;61.07
7532;BME280;3807;49.030;8.714;2023-04-08T04:39:50;99685.28;;;11.60;61.69
7532;BME280;3807;49.030;8.714;2023-04-08T04:42:15;99684.19;;;11.67;61.32
7532;BME280;3807;49.030;8.714;2023-04-08T04:44:41;99684.91;;;11.72;61.46
7532;BME280;3807;49.030;8.714;2023-04-08T04:47:06;99687.34;;;11.75;60.95
7532;BME280;3807;49.030;8.714;2023-04-08T04:49:31;99689.69;;;11.81;60.84
7532;BME280;3807;49.030;8.714;2023-04-08T04:51:57;99684.75;;;11.77;61.05
7532;BME280;3807;49.030;8.714;2023-04-08T04:54:22;99693.66;;;11.63;61.18
7532;BME280;3807;49.030;8.714;2023-04-08T04:56:47;99698.38;;;11.49;61.69
7532;BME280;3807;49.030;8.714;2023-04-08T04:59:13;99698.22;;;11.54;61.81
7532;BME280;3807;49.030;8.714;2023-04-08T05:01:38;99700.59;;;11.60;61.31
7532;BME280;3807;49.030;8.714;2023-04-08T05:04:05;99699.19;;;11.50;61.88
7532;BME280;3807;49.030;8.714;2023-04-08T05:06:30;99706.16;;;11.44;61.84
7532;BME280;3807;49.030;8.714;2023-04-08T05:08:56;99707.91;;;11.42;61.94
7532;BME280;3807;49.030;8.714;2023-04-08T05:11:21;99711.31;;;11.43;61.81
7532;BME280;3807;49.030;8.714;2023-04-08T05:13:46;99709.78;;;11.37;61.98
7532;BME280;3807;49.030;8.714;2023-04-08T05:16:12;99705.78;;;11.57;61.58
7532;BME280;3807;49.030;8.714;2023-04-08T05:18:37;99713.81;;;11.44;61.80
7532;BME280;3807;49.030;8.714;2023-04-08T05:21:03;99712.34;;;11.37;62.18
7532;BME280;3807;49.030;8.714;2023-04-08T05:23:28;99717.56;;;11.33;62.32
7532;BME280;3807;49.030;8.714;2023-04-08T05:25:54;99719.19;;;11.35;62.18
7532;BME280;3807;49.030;8.714;2023-04-08T05:28:20;99719.25;;;11.34;62.29
7532;BME280;3807;49.030;8.714;2023-04-08T05:30:49;99711.94;;;11.50;61.96
7532;BME280;3807;49.030;8.714;2023-04-08T05:33:15;99715.75;;;11.36;62.17
7532;BME280;3807;49.030;8.714;2023-04-08T05:35:40;99721.56;;;11.41;62.18
7532;BME280;3807;49.030;8.714;2023-04-08T05:38:06;99720.09;;;11.34;62.48
7532;BME280;3807;49.030;8.714;2023-04-08T05:40:31;99720.16;;;11.31;62.47
7532;BME280;3807;49.030;8.714;2023-04-08T05:42:57;99723.59;;;11.30;62.40
7532;BME280;3807;49.030;8.714;2023-04-08T05:45:22;99730.44;;;11.30;62.49
7532;BME280;3807;49.030;8.714;2023-04-08T05:47:47;99725.09;;;11.37;62.29
7532;BME280;3807;49.030;8.714;2023-04-08T05:50:12;99726.66;;;11.41;62.35
7532;BME280;3807;49.030;8.714;2023-04-08T05:52:42;99725.44;;;11.25;62.59
7532;BME280;3807;49.030;8.714;2023-04-08T05:55:09;99733.25;;;11.20;62.77
7532;BME280;3807;49.030;8.714;2023-04-08T05:57:35;99735.03;;;11.17;62.75
7532;BME280;3807;49.030;8.714;2023-04-08T06:00:00;99735.94;;;11.16;62.78
7532;BME280;3807;49.030;8.714;2023-04-08T06:02:26;99739.47;;;11.10;63.43
7532;BME280;3807;49.030;8.714;2023-04-08T06:04:51;99737.75;;;11.11;62.93
7532;BME280;3807;49.030;8.714;2023-04-08T06:07:16;99737.62;;;11.15;63.16
7532;BME280;3807;49.030;8.714;2023-04-08T06:09:41;99745.25;;;11.15;63.40
7532;BME280;3807;49.030;8.714;2023-04-08T06:12:07;99748.75;;;11.13;63.34
7532;BME280;3807;49.030;8.714;2023-04-08T06:14:32;99751.47;;;11.07;63.58
7532;BME280;3807;49.030;8.714;2023-04-08T06:16:57;99752.97;;;11.14;63.34
7532;BME280;3807;49.030;8.714;2023-04-08T06:19:23;99753.19;;;11.06;63.53
7532;BME280;3807;49.030;8.714;2023-04-08T06:21:49;99759.88;;;11.10;63.57
7532;BME280;3807;49.030;8.714;2023-04-08T06:24:15;99764.09;;;11.11;63.59
7532;BME280;3807;49.030;8.714;2023-04-08T06:26:40;99768.50;;;11.05;63.65
7532;BME280;3807;49.030;8.714;2023-04-08T06:29:06;99770.22;;;11.06;63.53
7532;BME280;3807;49.030;8.714;2023-04-08T06:31:32;99764.16;;;11.08;63.61
7532;BME280;3807;49.030;8.714;2023-04-08T06:33:57;99770.00;;;11.12;63.38
7532;BME280;3807;49.030;8.714;2023-04-08T06:36:22;99766.91;;;11.02;63.79
7532;BME280;3807;49.030;8.714;2023-04-08T06:38:48;99779.59;;;11.04;63.69
7532;BME280;3807;49.030;8.714;2023-04-08T06:41:13;99766.84;;;11.04;63.79
7532;BME280;3807;49.030;8.714;2023-04-08T06:43:38;99775.31;;;11.06;63.68
7532;BME280;3807;49.030;8.714;2023-04-08T06:46:04;99775.31;;;11.06;63.71
7532;BME280;3807;49.030;8.714;2023-04-08T06:48:30;99770.31;;;11.01;63.88
7532;BME280;3807;49.030;8.714;2023-04-08T06:50:56;99771.25;;;10.99;64.16
7532;BME280;3807;49.030;8.714;2023-04-08T06:53:24;99772.03;;;11.01;64.07
7532;BME280;3807;49.030;8.714;2023-04-08T06:55:50;99772.03;;;11.01;63.91
7532;BME280;3807;49.030;8.714;2023-04-08T06:58:15;99767.03;;;10.97;64.00
7532;BME280;3807;49.030;8.714;2023-04-08T07:00:41;99776.44;;;10.95;63.96
7532;BME280;3807;49.030;8.714;2023-04-08T07:03:07;99777.88;;;11.04;63.85
7532;BME280;3807;49.030;8.714;2023-04-08T07:05:34;99780.97;;;11.15;63.53
7532;BME280;3807;49.030;8.714;2023-04-08T07:08:00;99784.69;;;11.04;63.68
7532;BME280;3807;49.030;8.714;2023-04-08T07:10:26;99788.22;;;11.00;63.89
7532;BME280;3807;49.030;8.714;2023-04-08T07:12:52;99790.03;;;10.94;64.24
7532;BME280;3807;49.030;8.714;2023-04-08T07:15:18;99788.91;;;11.05;63.94
7532;BME280;3807;49.030;8.714;2023-04-08T07:17:43;99794.97;;;11.01;63.93
7532;BME280;3807;49.030;8.714;2023-04-08T07:20:09;99800.06;;;11.01;64.19
7532;BME280;3807;49.030;8.714;2023-04-08T07:22:34;99803.16;;;11.12;63.90
7532;BME280;3807;49.030;8.714;2023-04-08T07:25:00;99803.22;;;11.10;63.65
7532;BME280;3807;49.030;8.714;2023-04-08T07:27:25;99799.16;;;11.03;63.82
7532;BME280;3807;49.030;8.714;2023-04-08T07:29:53;99803.03;;;11.16;63.67
7532;BME280;3807;49.030;8.714;2023-04-08T07:32:19;99799.69;;;11.14;63.63
7532;BME280;3807;49.030;8.714;2023-04-08T07:34:45;99792.78;;;11.18;63.87
7532;BME280;3807;49.030;8.714;2023-04-08T07:37:10;99792.66;;;11.23;63.24
7532;BME280;3807;49.030;8.714;2023-04-08T07:39:35;99792.56;;;11.26;63.59
7532;BME280;3807;49.030;8.714;2023-04-08T07:42:01;99803.56;;;11.28;63.52
7532;BME280;3807;49.030;8.714;2023-04-08T07:44:26;99802.97;;;11.18;63.74
7532;BME280;3807;49.030;8.714;2023-04-08T07:46:51;99809.84;;;11.16;63.78
7532;BME280;3807;49.030;8.714;2023-04-08T07:49:17;99805.84;;;11.07;63.92
7532;BME280;3807;49.030;8.714;2023-04-08T07:51:42;99811.44;;;11.20;63.58
7532;BME280;3807;49.030;8.714;2023-04-08T07:54:07;99811.25;;;11.26;63.26
7532;BME280;3807;49.030;8.714;2023-04-08T07:56:36;99811.44;;;11.20;63.59
7532;BME280;3807;49.030;8.714;2023-04-08T07:59:04;99814.34;;;11.37;62.88
7532;BME280;3807;49.030;8.714;2023-04-08T08:01:30;99813.53;;;11.35;62.98
7532;BME280;3807;49.030;8.714;2023-04-08T08:03:58;99821.06;;;11.40;62.94
7532;BME280;3807;49.030;8.714;2023-04-08T08:06:24;99827.00;;;11.40;62.99
7532;BME280;3807;49.030;8.714;2023-04-08T08:08:50;99824.34;;;11.43;62.79
7532;BME280;3807;49.030;8.714;2023-04-08T08:11:15;99828.44;;;11.49;62.74
7532;BME280;3807;49.030;8.714;2023-04-08T08:13:41;99836.16;;;11.48;62.62
7532;BME280;3807;49.030;8.714;2023-04-08T08:16:06;99836.19;;;11.46;62.69
7532;BME280;3807;49.030;8.714;2023-04-08T08:18:35;99832.13;;;11.40;63.13
7532;BME280;3807;49.030;8.714;2023-04-08T08:21:01;99833.06;;;11.66;62.06
7532;BME280;3807;49.030;8.714;2023-04-08T08:23:26;99835.59;;;11.66;61.16
7532;BME280;3807;49.030;8.714;2023-04-08T08:25:59;99833.87;;;11.68;61.06
7532;BME280;3807;49.030;8.714;2023-04-08T08:28:25;99832.69;;;11.78;60.92
7532;BME280;3807;49.030;8.714;2023-04-08T08:30:50;99833.37;;;11.83;63.39
7532;BME280;3807;49.030;8.714;2023-04-08T08:33:15;99838.72;;;11.76;62.92
7532;BME280;3807;49.030;8.714;2023-04-08T08:35:41;99836.84;;;11.81;61.29
7532;BME280;3807;49.030;8.714;2023-04-08T08:38:06;99842.56;;;11.90;61.41
7532;BME280;3807;49.030;8.714;2023-04-08T08:40:32;99843.53;;;11.86;62.89
7532;BME280;3807;49.030;8.714;2023-04-08T08:42:57;99840.59;;;11.99;62.14
7532;BME280;3807;49.030;8.714;2023-04-08T08:45:23;99841.63;;;12.21;60.51
7532;BME280;3807;49.030;8.714;2023-04-08T08:47:50;99837.94;;;12.02;61.53
7532;BME280;3807;49.030;8.714;2023-04-08T08:50:15;99843.56;;;12.13;60.75
7532;BME280;3807;49.030;8.714;2023-04-08T08:52:47;99847.87;;;12.11;60.83
7532;BME280;3807;49.030;8.714;2023-04-08T08:55:13;99847.56;;;12.22;61.02
7532;BME280;3807;49.030;8.714;2023-04-08T08:57:38;99845.31;;;12.37;60.52
7532;BME280;3807;49.030;8.714;2023-04-08T09:00:04;99845.81;;;12.22;61.84
7532;BME280;3807;49.030;8.714;2023-04-08T09:02:30;99841.87;;;12.12;64.19
7532;BME280;3807;49.030;8.714;2023-04-08T09:05:01;99850.44;;;12.11;63.41
7532;BME280;3807;49.030;8.714;2023-04-08T09:07:28;99858.00;;;12.40;62.07
7532;BME280;3807;49.030;8.714;2023-04-08T09:09:56;99852.59;;;12.50;62.79
7532;BME280;3807;49.030;8.714;2023-04-08T09:12:22;99850.78;;;12.53;62.31
7532;BME280;3807;49.030;8.714;2023-04-08T09:14:48;99853.69;;;12.43;62.86
7532;BME280;3807;49.030;8.714;2023-04-08T09:17:13;99853.44;;;12.75;61.71
7532;BME280;3807;49.030;8.714;2023-04-08T09:19:39;99854.63;;;12.65;61.88
7532;BME280;3807;49.030;8.714;2023-04-08T09:22:24;99855.47;;;12.66;61.51
7532;BME280;3807;49.030;8.714;2023-04-08T09:24:50;99848.87;;;12.60;61.76
7532;BME280;3807;49.030;8.714;2023-04-08T09:27:32;99851.50;;;12.57;62.50
7532;BME280;3807;49.030;8.714;2023-04-08T09:30:18;99849.56;;;12.90;61.45
7532;BME280;3807;49.030;8.714;2023-04-08T09:32:50;99850.53;;;12.86;61.32
7532;BME280;3807;49.030;8.714;2023-04-08T09:35:20;99845.41;;;12.86;61.39
7532;BME280;3807;49.030;8.714;2023-04-08T09:37:45;99845.00;;;12.98;61.09
7532;BME280;3807;49.030;8.714;2023-04-08T09:40:11;99844.00;;;13.02;60.95
7532;BME280;3807;49.030;8.714;2023-04-08T09:42:40;99849.00;;;13.05;60.90
7532;BME280;3807;49.030;8.714;2023-04-08T09:45:06;99849.50;;;12.92;61.08
7532;BME280;3807;49.030;8.714;2023-04-08T09:47:55;99846.13;;;13.15;60.60
7532;BME280;3807;49.030;8.714;2023-04-08T09:50:30;99841.03;;;13.15;60.46
7532;BME280;3807;49.030;8.714;2023-04-08T09:53:04;99856.37;;;13.15;60.71
7532;BME280;3807;49.030;8.714;2023-04-08T09:55:35;99846.38;;;13.07;60.93
7532;BME280;3807;49.030;8.714;2023-04-08T09:58:07;99852.94;;;13.14;60.65
7532;BME280;3807;49.030;8.714;2023-04-08T10:00:42;99846.88;;;13.18;60.60
7532;BME280;3807;49.030;8.714;2023-04-08T10:05:49;99850.19;;;13.20;60.47
7532;BME280;3807;49.030;8.714;2023-04-08T10:08:17;99855.53;;;13.39;60.07
7532;BME280;3807;49.030;8.714;2023-04-08T10:10:42;99855.16;;;13.48;59.72
7532;BME280;3807;49.030;8.714;2023-04-08T10:13:08;99850.78;;;13.52;59.77
7532;BME280;3807;49.030;8.714;2023-04-08T10:15:35;99854.44;;;13.68;58.89
7532;BME280;3807;49.030;8.714;2023-04-08T10:22:58;99864.00;;;13.63;59.25
7532;BME280;3807;49.030;8.714;2023-04-08T10:25:40;99857.41;;;13.79;58.26
7532;BME280;3807;49.030;8.714;2023-04-08T10:30:47;99866.94;;;13.76;58.38
7532;BME280;3807;49.030;8.714;2023-04-08T10:33:18;99861.41;;;13.87;56.89
7532;BME280;3807;49.030;8.714;2023-04-08T10:35:52;99855.59;;;13.59;53.30
7532;BME280;3807;49.030;8.714;2023-04-08T10:38:18;99858.53;;;13.72;57.60
7532;BME280;3807;49.030;8.714;2023-04-08T10:40:44;99860.28;;;13.94;55.00
7532;BME280;3807;49.030;8.714;2023-04-08T10:43:11;99854.44;;;13.90;57.09
7532;BME280;3807;49.030;8.714;2023-04-08T10:45:38;99861.91;;;13.96;56.63
7532;BME280;3807;49.030;8.714;2023-04-08T10:48:20;99856.72;;;14.20;55.88
7532;BME280;3807;49.030;8.714;2023-04-08T10:50:54;99853.44;;;14.16;56.15
7532;BME280;3807;49.030;8.714;2023-04-08T10:53:27;99852.72;;;14.13;55.97
7532;BME280;3807;49.030;8.714;2023-04-08T10:55:53;99853.78;;;14.29;55.34
7532;BME280;3807;49.030;8.714;2023-04-08T10:58:19;99861.03;;;14.40;54.88
7532;BME280;3807;49.030;8.714;2023-04-08T11:00:45;99850.13;;;14.35;55.22
7532;BME280;3807;49.030;8.714;2023-04-08T11:03:10;99850.97;;;14.35;55.76
7532;BME280;3807;49.030;8.714;2023-04-08T11:05:36;99844.34;;;14.51;54.81
7532;BME280;3807;49.030;8.714;2023-04-08T11:08:03;99845.59;;;14.41;55.15
7532;BME280;3807;49.030;8.714;2023-04-08T11:10:29;99850.66;;;14.43;54.69
7532;BME280;3807;49.030;8.714;2023-04-08T11:12:56;99842.91;;;14.44;55.33
7532;BME280;3807;49.030;8.714;2023-04-08T11:15:23;99842.38;;;14.36;55.21
7532;BME280;3807;49.030;8.714;2023-04-08T11:17:49;99849.31;;;14.34;55.70
7532;BME280;3807;49.030;8.714;2023-04-08T11:20:16;99840.13;;;14.50;54.05
7532;BME280;3807;49.030;8.714;2023-04-08T11:22:43;99848.84;;;14.67;54.12
7532;BME280;3807;49.030;8.714;2023-04-08T11:25:09;99840.31;;;14.66;53.76
7532;BME280;3807;49.030;8.714;2023-04-08T11:27:36;99848.09;;;14.65;54.07
7532;BME280;3807;49.030;8.714;2023-04-08T11:30:04;99839.38;;;14.47;54.53
7532;BME280;3807;49.030;8.714;2023-04-08T11:32:30;99844.75;;;14.63;54.07
7532;BME280;3807;49.030;8.714;2023-04-08T11:34:58;99849.03;;;14.62;54.28
7532;BME280;3807;49.030;8.714;2023-04-08T11:37:24;99844.75;;;14.63;54.39
7532;BME280;3807;49.030;8.714;2023-04-08T11:39:50;99851.94;;;14.75;54.11
7532;BME280;3807;49.030;8.714;2023-04-08T11:42:27;99843.00;;;14.63;53.39
7532;BME280;3807;49.030;8.714;2023-04-08T11:44:52;99853.38;;;14.60;54.02
7532;BME280;3807;49.030;8.714;2023-04-08T11:47:18;99846.28;;;14.67;54.07
7532;BME280;3807;49.030;8.714;2023-04-08T11:49:44;99851.66;;;14.61;52.45
7532;BME280;3807;49.030;8.714;2023-04-08T11:52:09;99844.88;;;14.80;53.53
7532;BME280;3807;49.030;8.714;2023-04-08T11:54:40;99841.09;;;14.89;53.35
7532;BME280;3807;49.030;8.714;2023-04-08T11:57:07;99845.38;;;14.88;53.18
7532;BME280;3807;49.030;8.714;2023-04-08T11:59:34;99844.41;;;14.91;52.88
7532;BME280;3807;49.030;8.714;2023-04-08T12:02:00;99837.75;;;14.87;52.30
7532;BME280;3807;49.030;8.714;2023-04-08T12:04:26;99839.78;;;14.99;52.74
7532;BME280;3807;49.030;8.714;2023-04-08T12:06:51;99836.78;;;15.10;52.81
7532;BME280;3807;49.030;8.714;2023-04-08T12:09:17;99834.41;;;14.85;52.34
7532;BME280;3807;49.030;8.714;2023-04-08T12:11:42;99834.72;;;14.97;52.47
7532;BME280;3807;49.030;8.714;2023-04-08T12:14:08;99839.47;;;15.07;52.98
7532;BME280;3807;49.030;8.714;2023-04-08T12:16:33;99836.81;;;15.08;53.13
7532;BME280;3807;49.030;8.714;2023-04-08T12:18:59;99838.78;;;15.03;52.92
7532;BME280;3807;49.030;8.714;2023-04-08T12:21:24;99850.91;;;15.18;52.16
7532;BME280;3807;49.030;8.714;2023-04-08T12:23:49;99845.28;;;15.10;51.70
7532;BME280;3807;49.030;8.714;2023-04-08T12:26:16;99845.28;;;15.10;52.25
7532;BME280;3807;49.030;8.714;2023-04-08T12:28:41;99855.53;;;15.31;52.01
7532;BME280;3807;49.030;8.714;2023-04-08T12:31:06;99846.44;;;15.42;51.36
7532;BME280;3807;49.030;8.714;2023-04-08T12:33:32;99845.38;;;15.28;51.09
7532;BME280;3807;49.030;8.714;2023-04-08T12:35:57;99849.53;;;15.30;51.91
7532;BME280;3807;49.030;8.714;2023-04-08T12:38:24;99856.03;;;15.18;52.40
7532;BME280;3807;49.030;8.714;2023-04-08T12:40:49;99848.50;;;15.34;51.85
7532;BME280;3807;49.030;8.714;2023-04-08T12:43:15;99852.66;;;15.37;50.66
7532;BME280;3807;49.030;8.714;2023-04-08T12:45:40;99849.03;;;15.41;51.90
7532;BME280;3807;49.030;8.714;2023-04-08T12:48:06;99857.59;;;15.60;49.58
7532;BME280;3807;49.030;8.714;2023-04-08T12:50:31;99853.88;;;15.48;47.58
7532;BME280;3807;49.030;8.714;2023-04-08T12:52:57;99855.34;;;15.34;50.56
7532;BME280;3807;49.030;8.714;2023-04-08T12:55:22;99852.12;;;15.49;50.89
7532;BME280;3807;49.030;8.714;2023-04-08T12:57:50;99859.47;;;15.38;49.95
7532;BME280;3807;49.030;8.714;2023-04-08T13:00:15;99858.47;;;15.40;51.02
7532;BME280;3807;49.030;8.714;2023-04-08T13:02:41;99846.13;;;15.69;49.16
7532;BME280;3807;49.030;8.714;2023-04-08T13:05:08;99855.53;;;15.68;48.46
7532;BME280;3807;49.030;8.714;2023-04-08T13:07:34;99842.69;;;15.68;46.62
7532;BME280;3807;49.030;8.714;2023-04-08T13:09:59;99846.41;;;15.61;46.98
7532;BME280;3807;49.030;8.714;2023-04-08T13:12:25;99844.94;;;15.76;49.55
7532;BME280;3807;49.030;8.714;2023-04-08T13:14:51;99842.97;;;15.81;48.56
7532;BME280;3807;49.030;8.714;2023-04-08T13:17:17;99838.09;;;15.18;49.39
7532;BME280;3807;49.030;8.714;2023-04-08T13:19:42;99832.84;;;15.59;46.97
7532;BME280;3807;49.030;8.714;2023-04-08T13:22:07;99834.56;;;15.78;45.92
7532;BME280;3807;49.030;8.714;2023-04-08T13:24:32;99831.84;;;15.62;49.22
7532;BME280;3807;49.030;8.714;2023-04-08T13:26:58;99834.03;;;15.71;48.53
7532;BME280;3807;49.030;8.714;2023-04-08T13:29:23;99839.88;;;15.92;49.45
7532;BME280;3807;49.030;8.714;2023-04-08T13:31:48;99829.97;;;15.84;49.30
7532;BME280;3807;49.030;8.714;2023-04-08T13:34:15;99835.31;;;15.99;48.78